createdAt,value
2023-04-07T00:00:04.493Z,-1.56
2023-04-07T00:02:32.410Z,-1.56
2023-04-07T00:04:59.178Z,-1.58
2023-04-07T00:07:25.742Z,-1.50
2023-04-07T00:09:52.279Z,-1.47
2023-04-07T00:12:18.764Z,-1.49
2023-04-07T00:14:45.370Z,-1.44
2023-04-07T00:17:11.868Z,-1.41
2023-04-07T00:19:38.506Z,-1.41
2023-04-07T00:22:05.010Z,-1.42
2023-04-07T00:24:34.604Z,-1.41
2023-04-07T00:27:02.157Z,-1.40
2023-04-07T00:29:28.768Z,-1.40
2023-04-07T00:31:55.288Z,-1.38
2023-04-07T00:34:21.831Z,-1.36
2023-04-07T00:36:52.142Z,-1.33
2023-04-07T00:39:19.728Z,-1.39
2023-04-07T00:41:47.188Z,-1.46
2023-04-07T00:44:14.333Z,-1.46
2023-04-07T00:46:41.527Z,-1.44
2023-04-07T00:49:10.572Z,-1.47
2023-04-07T00:51:38.000Z,-1.54
2023-04-07T00:54:04.778Z,-1.54
2023-04-07T00:56:32.062Z,-1.53
2023-04-07T00:58:58.625Z,-1.49
2023-04-07T01:01:33.315Z,-1.48
2023-04-07T01:04:09.872Z,-1.49
2023-04-07T01:06:44.008Z,-1.48
2023-04-07T01:09:35.075Z,-1.58
2023-04-07T01:12:29.038Z,-1.59
2023-04-07T01:15:00.379Z,-1.62
2023-04-07T01:17:28.494Z,-1.66
2023-04-07T01:20:08.122Z,-1.65
2023-04-07T01:22:47.629Z,-1.58
2023-04-07T01:25:53.871Z,-1.51
2023-04-07T01:28:39.034Z,-1.42
2023-04-07T01:31:07.657Z,-1.39
2023-04-07T01:33:36.645Z,-1.38
2023-04-07T01:36:07.175Z,-1.38
2023-04-07T01:38:34.921Z,-1.33
2023-04-07T01:41:02.921Z,-1.40
2023-04-07T01:43:31.112Z,-1.44
2023-04-07T01:45:57.981Z,-1.45
2023-04-07T01:48:25.904Z,-1.45
2023-04-07T01:50:53.279Z,-1.37
2023-04-07T01:53:20.374Z,-1.29
2023-04-07T01:55:46.886Z,-1.27
2023-04-07T01:58:13.468Z,-1.22
2023-04-07T02:00:40.964Z,-1.26
2023-04-07T02:03:20.681Z,-1.32
2023-04-07T02:05:56.502Z,-1.39
2023-04-07T02:08:28.816Z,-1.39
2023-04-07T02:10:59.469Z,-1.39
2023-04-07T02:13:27.547Z,-1.41
2023-04-07T02:15:56.328Z,-1.41
2023-04-07T02:18:25.100Z,-1.44
2023-04-07T02:20:52.677Z,-1.42
2023-04-07T02:23:19.377Z,-1.39
2023-04-07T02:25:46.241Z,-1.35
2023-04-07T02:28:12.708Z,-1.35
2023-04-07T02:30:40.051Z,-1.40
2023-04-07T02:33:06.647Z,-1.42
2023-04-07T02:35:33.313Z,-1.46
2023-04-07T02:37:59.819Z,-1.47
2023-04-07T02:40:26.357Z,-1.45
2023-04-07T02:42:52.874Z,-1.45
2023-04-07T02:45:19.427Z,-1.45
2023-04-07T02:47:46.179Z,-1.50
2023-04-07T02:50:12.741Z,-1.58
2023-04-07T02:52:39.264Z,-1.60
2023-04-07T02:55:07.301Z,-1.69
2023-04-07T02:57:33.873Z,-1.71
2023-04-07T03:00:00.514Z,-1.71
2023-04-07T03:02:27.223Z,-1.78
2023-04-07T03:04:54.006Z,-1.80
2023-04-07T03:07:20.655Z,-1.86
2023-04-07T03:09:47.202Z,-1.84
2023-04-07T03:12:13.760Z,-1.86
2023-04-07T03:14:40.274Z,-1.90
2023-04-07T03:17:06.924Z,-2.01
2023-04-07T03:19:33.543Z,-2.04
2023-04-07T03:22:00.166Z,-2.05
2023-04-07T03:24:27.091Z,-2.07
2023-04-07T03:26:53.662Z,-2.05
2023-04-07T03:29:20.275Z,-2.04
2023-04-07T03:31:46.799Z,-2.09
2023-04-07T03:34:13.741Z,-2.11
2023-04-07T03:36:40.359Z,-2.09
2023-04-07T03:39:06.877Z,-2.13
2023-04-07T03:41:33.783Z,-2.20
2023-04-07T03:44:00.488Z,-2.29
2023-04-07T03:46:27.221Z,-2.31
2023-04-07T03:48:53.999Z,-2.29
2023-04-07T03:51:20.715Z,-2.32
2023-04-07T03:53:47.297Z,-2.38
2023-04-07T03:56:13.748Z,-2.43
2023-04-07T03:58:42.659Z,-2.43
2023-04-07T04:01:09.056Z,-2.47
2023-04-07T04:03:35.906Z,-2.55
2023-04-07T04:06:02.564Z,-2.57
2023-04-07T04:08:29.149Z,-2.62
2023-04-07T04:10:55.876Z,-2.65
2023-04-07T04:13:22.269Z,-2.69
2023-04-07T04:15:48.674Z,-2.71
2023-04-07T04:18:15.562Z,-2.70
2023-04-07T04:20:42.981Z,-2.73
2023-04-07T04:23:09.445Z,-2.76
2023-04-07T04:25:35.923Z,-2.77
2023-04-07T04:28:02.376Z,-2.77
2023-04-07T04:30:28.847Z,-2.74
2023-04-07T04:32:55.511Z,-2.71
2023-04-07T04:35:21.987Z,-2.73
2023-04-07T04:37:48.584Z,-2.77
2023-04-07T04:40:15.130Z,-2.79
2023-04-07T04:42:41.698Z,-2.76
2023-04-07T04:45:08.446Z,-2.74
2023-04-07T04:47:34.888Z,-2.70
2023-04-07T04:50:01.443Z,-2.65
2023-04-07T04:52:28.835Z,-2.66
2023-04-07T04:54:55.393Z,-2.70
2023-04-07T04:57:21.807Z,-2.75
2023-04-07T04:59:48.280Z,-2.73
2023-04-07T05:02:14.793Z,-2.66
2023-04-07T05:04:41.512Z,-2.55
2023-04-07T05:07:08.001Z,-2.42
2023-04-07T05:09:34.400Z,-2.30
2023-04-07T05:12:01.846Z,-2.14
2023-04-07T05:14:28.274Z,-1.92
2023-04-07T05:16:54.753Z,-1.75
2023-04-07T05:19:21.234Z,-1.58
2023-04-07T05:21:47.690Z,-1.38
2023-04-07T05:24:14.071Z,-1.15
2023-04-07T05:26:40.585Z,-0.89
2023-04-07T05:29:06.980Z,-0.66
2023-04-07T05:31:36.074Z,-0.42
2023-04-07T05:34:02.713Z,-0.23
2023-04-07T05:36:29.244Z,0.03
2023-04-07T05:38:55.760Z,0.24
2023-04-07T05:41:22.250Z,0.64
2023-04-07T05:43:48.679Z,0.93
2023-04-07T05:46:15.167Z,1.14
2023-04-07T05:48:42.045Z,1.40
2023-04-07T05:51:08.472Z,1.64
2023-04-07T05:53:34.889Z,1.86
2023-04-07T05:56:01.430Z,2.10
2023-04-07T05:58:28.129Z,2.31
2023-04-07T06:00:54.597Z,2.39
2023-04-07T06:03:21.368Z,2.64
2023-04-07T06:05:47.953Z,2.96
2023-04-07T06:08:14.351Z,3.15
2023-04-07T06:10:41.753Z,3.36
2023-04-07T06:13:08.156Z,3.52
2023-04-07T06:15:35.042Z,3.79
2023-04-07T06:18:01.478Z,4.12
2023-04-07T06:20:28.197Z,4.33
2023-04-07T06:22:55.015Z,4.55
2023-04-07T06:25:21.877Z,4.96
2023-04-07T06:27:48.405Z,6.08
2023-04-07T06:30:14.962Z,7.33
2023-04-07T06:32:41.517Z,7.81
2023-04-07T06:35:08.135Z,7.92
2023-04-07T06:37:34.533Z,7.89
2023-04-07T06:40:01.045Z,8.04
2023-04-07T06:42:28.448Z,8.27
2023-04-07T06:44:54.970Z,8.32
2023-04-07T06:47:21.884Z,8.36
2023-04-07T06:49:48.396Z,8.27
2023-04-07T06:52:15.527Z,8.35
2023-04-07T06:54:42.057Z,8.40
2023-04-07T06:57:12.055Z,8.52
2023-04-07T06:59:39.209Z,8.82
2023-04-07T07:02:07.581Z,9.16
2023-04-07T07:04:35.402Z,9.48
2023-04-07T07:07:02.478Z,9.86
2023-04-07T07:09:28.975Z,10.17
2023-04-07T07:11:56.083Z,10.45
2023-04-07T07:14:22.638Z,10.76
2023-04-07T07:16:50.218Z,11.09
2023-04-07T07:19:16.765Z,11.33
2023-04-07T07:21:43.345Z,11.48
2023-04-07T07:24:09.872Z,11.88
2023-04-07T07:26:36.454Z,12.14
2023-04-07T07:29:02.957Z,12.54
2023-04-07T07:31:31.043Z,12.91
2023-04-07T07:33:57.664Z,12.90
2023-04-07T07:36:24.226Z,13.17
2023-04-07T07:38:51.755Z,13.03
2023-04-07T07:41:18.356Z,13.07
2023-04-07T07:43:44.926Z,13.17
2023-04-07T07:46:11.468Z,13.51
2023-04-07T07:48:37.979Z,13.47
2023-04-07T07:51:04.906Z,13.15
2023-04-07T07:53:31.466Z,12.81
2023-04-07T07:55:58.117Z,13.33
2023-04-07T07:58:24.764Z,14.00
2023-04-07T08:00:51.349Z,14.85
2023-04-07T08:03:19.972Z,15.46
2023-04-07T08:05:48.421Z,15.91
2023-04-07T08:08:14.930Z,16.35
2023-04-07T08:10:41.520Z,16.95
2023-04-07T08:13:08.065Z,16.44
2023-04-07T08:15:34.656Z,16.75
2023-04-07T08:18:04.346Z,17.17
2023-04-07T08:20:31.627Z,18.06
2023-04-07T08:22:58.422Z,18.70
2023-04-07T08:25:24.959Z,18.89
2023-04-07T08:27:51.580Z,18.75
2023-04-07T08:30:18.239Z,18.61
2023-04-07T08:32:45.505Z,18.87
2023-04-07T08:35:12.514Z,19.18
2023-04-07T08:37:41.122Z,19.18
2023-04-07T08:40:08.100Z,18.22
2023-04-07T08:42:36.275Z,18.08
2023-04-07T08:45:05.883Z,18.43
2023-04-07T08:47:34.676Z,18.94
2023-04-07T08:50:03.927Z,19.20
2023-04-07T08:52:48.419Z,19.30
2023-04-07T08:55:15.335Z,19.00
2023-04-07T08:57:42.879Z,19.02
2023-04-07T09:00:10.231Z,19.58
2023-04-07T09:02:38.700Z,19.51
2023-04-07T09:05:07.631Z,18.37
2023-04-07T09:07:35.837Z,18.68
2023-04-07T09:10:02.715Z,19.49
2023-04-07T09:12:29.888Z,20.40
2023-04-07T09:14:56.555Z,20.69
2023-04-07T09:17:24.918Z,20.24
2023-04-07T09:19:56.081Z,19.39
2023-04-07T09:22:35.936Z,19.04
2023-04-07T09:25:29.930Z,19.04
2023-04-07T09:28:02.217Z,19.38
2023-04-07T09:30:29.883Z,19.87
2023-04-07T09:32:57.236Z,20.48
2023-04-07T09:35:24.762Z,20.96
2023-04-07T09:38:03.608Z,22.05
2023-04-07T09:40:30.443Z,22.60
2023-04-07T09:42:58.675Z,23.88
2023-04-07T09:45:34.432Z,24.64
2023-04-07T09:48:18.104Z,24.74
2023-04-07T09:50:49.357Z,24.36
2023-04-07T09:53:17.060Z,24.64
2023-04-07T09:55:44.210Z,25.60
2023-04-07T09:58:14.529Z,26.17
2023-04-07T10:00:42.284Z,27.06
2023-04-07T10:03:09.412Z,28.59
2023-04-07T10:05:36.734Z,28.28
2023-04-07T10:08:06.057Z,27.78
2023-04-07T10:10:33.150Z,27.01
2023-04-07T10:12:59.846Z,26.67
2023-04-07T10:15:26.719Z,25.86
2023-04-07T10:17:53.991Z,25.39
2023-04-07T10:20:23.156Z,25.65
2023-04-07T10:22:53.785Z,27.23
2023-04-07T10:25:24.416Z,26.49
2023-04-07T10:27:59.223Z,29.10
2023-04-07T10:30:28.982Z,29.30
2023-04-07T10:32:55.931Z,27.69
2023-04-07T10:35:23.333Z,29.53
2023-04-07T10:38:08.233Z,29.84
2023-04-07T10:40:35.969Z,28.94
2023-04-07T10:43:02.865Z,30.90
2023-04-07T10:45:54.277Z,31.93
2023-04-07T10:48:21.958Z,31.95
2023-04-07T10:51:08.026Z,31.51
2023-04-07T10:53:34.951Z,32.67
2023-04-07T10:56:01.774Z,32.46
2023-04-07T10:58:32.281Z,32.92
2023-04-07T11:01:01.605Z,31.91
2023-04-07T11:03:30.249Z,29.62
2023-04-07T11:06:10.577Z,31.39
2023-04-07T11:08:39.373Z,33.24
2023-04-07T11:11:09.322Z,30.10
2023-04-07T11:13:47.912Z,29.00
2023-04-07T11:16:16.625Z,29.19
2023-04-07T11:18:44.304Z,26.63
2023-04-07T11:21:11.141Z,25.97
2023-04-07T11:23:42.492Z,24.17
2023-04-07T11:26:11.513Z,27.75
2023-04-07T11:28:52.817Z,30.26
2023-04-07T11:31:27.420Z,32.24
2023-04-07T11:34:01.685Z,32.01
2023-04-07T11:36:31.008Z,33.04
2023-04-07T11:38:58.094Z,32.87
2023-04-07T11:41:30.721Z,32.50
2023-04-07T11:44:11.086Z,32.17
2023-04-07T11:46:53.656Z,33.30
2023-04-07T11:49:20.682Z,34.00
2023-04-07T11:51:47.311Z,34.94
2023-04-07T11:54:13.903Z,34.41
2023-04-07T11:56:46.034Z,33.97
2023-04-07T11:59:20.953Z,33.94
2023-04-07T12:01:48.235Z,30.91
2023-04-07T12:04:16.332Z,32.30
2023-04-07T12:06:43.922Z,32.00
2023-04-07T12:09:34.798Z,31.43
2023-04-07T12:12:02.695Z,30.15
2023-04-07T12:14:29.443Z,31.28
2023-04-07T12:16:57.767Z,31.33
2023-04-07T12:19:28.607Z,31.63
2023-04-07T12:21:56.840Z,31.50
2023-04-07T12:24:23.978Z,31.67
2023-04-07T12:26:50.585Z,32.24
2023-04-07T12:29:17.621Z,30.34
2023-04-07T12:31:44.173Z,29.96
2023-04-07T12:34:10.788Z,28.68
2023-04-07T12:36:37.338Z,27.35
2023-04-07T12:39:03.870Z,26.31
2023-04-07T12:41:31.352Z,26.76
2023-04-07T12:43:57.913Z,26.50
2023-04-07T12:46:24.606Z,25.01
2023-04-07T12:48:51.808Z,24.84
2023-04-07T12:51:18.553Z,26.52
2023-04-07T12:53:45.347Z,27.99
2023-04-07T12:56:13.241Z,28.88
2023-04-07T12:58:40.764Z,30.75
2023-04-07T13:01:07.906Z,27.71
2023-04-07T13:03:34.630Z,27.12
2023-04-07T13:06:01.642Z,26.21
2023-04-07T13:08:29.308Z,26.37
2023-04-07T13:10:56.862Z,24.41
2023-04-07T13:13:24.116Z,26.52
2023-04-07T13:15:50.813Z,29.15
2023-04-07T13:18:17.450Z,30.11
2023-04-07T13:20:54.374Z,30.73
2023-04-07T13:23:42.020Z,30.77
2023-04-07T13:26:10.225Z,31.91
2023-04-07T13:28:36.779Z,32.15
2023-04-07T13:31:03.651Z,32.79
2023-04-07T13:33:30.187Z,32.61
2023-04-07T13:35:56.942Z,29.53
2023-04-07T13:38:24.526Z,27.27
2023-04-07T13:40:51.094Z,24.54
2023-04-07T13:43:19.082Z,21.60
2023-04-07T13:45:48.081Z,20.60
2023-04-07T13:48:14.809Z,19.43
2023-04-07T13:50:41.295Z,18.63
2023-04-07T13:53:08.068Z,18.85
2023-04-07T13:55:34.611Z,18.23
2023-04-07T13:58:01.326Z,17.69
2023-04-07T14:00:28.056Z,16.87
2023-04-07T14:02:56.136Z,16.76
2023-04-07T14:05:23.263Z,16.13
2023-04-07T14:07:51.059Z,15.88
2023-04-07T14:10:17.821Z,16.04
2023-04-07T14:12:44.375Z,15.95
2023-04-07T14:15:11.065Z,16.09
2023-04-07T14:17:37.612Z,16.24
2023-04-07T14:20:04.654Z,15.97
2023-04-07T14:22:31.460Z,15.90
2023-04-07T14:24:58.107Z,15.93
2023-04-07T14:27:24.644Z,15.87
2023-04-07T14:29:51.204Z,15.76
2023-04-07T14:32:17.719Z,15.92
2023-04-07T14:34:44.248Z,15.94
2023-04-07T14:37:11.826Z,15.94
2023-04-07T14:39:39.470Z,15.89
2023-04-07T14:42:07.496Z,15.85
2023-04-07T14:44:34.043Z,15.84
2023-04-07T14:47:00.554Z,15.63
2023-04-07T14:49:28.589Z,15.63
2023-04-07T14:51:55.175Z,15.61
2023-04-07T14:54:21.699Z,15.54
2023-04-07T14:56:48.267Z,15.72
2023-04-07T14:59:14.868Z,15.57
2023-04-07T15:01:41.471Z,15.33
2023-04-07T15:04:08.148Z,14.96
2023-04-07T15:06:34.757Z,15.08
2023-04-07T15:09:01.293Z,15.13
2023-04-07T15:11:27.771Z,15.23
2023-04-07T15:13:54.479Z,15.24
2023-04-07T15:16:21.059Z,15.16
2023-04-07T15:18:48.572Z,14.81
2023-04-07T15:21:15.829Z,14.66
2023-04-07T15:23:42.762Z,14.50
2023-04-07T15:26:10.120Z,14.37
2023-04-07T15:28:37.028Z,14.32
2023-04-07T15:31:08.270Z,14.31
2023-04-07T15:33:40.009Z,14.27
2023-04-07T15:36:08.440Z,14.25
2023-04-07T15:38:35.601Z,14.28
2023-04-07T15:41:02.201Z,14.17
2023-04-07T15:43:29.133Z,14.20
2023-04-07T15:45:57.328Z,14.04
2023-04-07T15:48:24.223Z,14.02
2023-04-07T15:50:51.955Z,14.09
2023-04-07T15:53:18.531Z,14.03
2023-04-07T15:55:45.530Z,13.98
2023-04-07T15:58:12.141Z,13.95
2023-04-07T16:00:39.528Z,13.95
2023-04-07T16:03:06.329Z,13.91
2023-04-07T16:05:33.015Z,13.78
2023-04-07T16:07:59.563Z,13.69
2023-04-07T16:10:26.119Z,13.57
2023-04-07T16:12:52.707Z,13.51
2023-04-07T16:15:28.875Z,13.38
2023-04-07T16:18:07.487Z,13.19
2023-04-07T16:20:34.018Z,13.08
2023-04-07T16:23:00.580Z,13.01
2023-04-07T16:25:27.228Z,12.96
2023-04-07T16:27:53.954Z,12.95
2023-04-07T16:30:20.831Z,12.90
2023-04-07T16:32:47.544Z,12.85
2023-04-07T16:35:15.151Z,12.87
2023-04-07T16:37:42.506Z,12.86
2023-04-07T16:40:10.118Z,12.86
2023-04-07T16:43:37.772Z,12.85
2023-04-07T16:46:06.118Z,12.84
2023-04-07T16:48:33.236Z,12.85
2023-04-07T16:51:00.181Z,12.86
2023-04-07T16:53:26.814Z,12.82
2023-04-07T16:55:53.392Z,12.80
2023-04-07T16:58:21.164Z,12.76
2023-04-07T17:00:47.685Z,12.64
2023-04-07T17:03:17.569Z,12.53
2023-04-07T17:05:48.273Z,12.36
2023-04-07T17:08:14.793Z,12.24
2023-04-07T17:10:41.336Z,12.08
2023-04-07T17:13:07.856Z,11.97
2023-04-07T17:15:38.217Z,11.83
2023-04-07T17:18:04.958Z,11.74
2023-04-07T17:20:31.492Z,11.69
2023-04-07T17:22:58.050Z,11.62
2023-04-07T17:25:24.892Z,11.55
2023-04-07T17:27:51.485Z,11.48
2023-04-07T17:30:18.472Z,11.39
2023-04-07T17:32:45.152Z,11.30
2023-04-07T17:35:11.772Z,11.14
2023-04-07T17:37:38.462Z,11.03
2023-04-07T17:40:05.824Z,10.90
2023-04-07T17:42:33.011Z,10.77
2023-04-07T17:44:59.554Z,10.68
2023-04-07T17:47:26.210Z,10.60
2023-04-07T17:49:52.966Z,10.50
2023-04-07T17:52:19.489Z,10.40
2023-04-07T17:54:46.271Z,10.27
2023-04-07T17:57:14.474Z,10.22
2023-04-07T17:59:41.187Z,10.18
2023-04-07T18:02:10.644Z,10.07
2023-04-07T18:04:37.931Z,9.99
2023-04-07T18:07:04.963Z,9.84
2023-04-07T18:09:32.545Z,9.74
2023-04-07T18:12:01.525Z,9.63
2023-04-07T18:14:28.886Z,9.56
2023-04-07T18:16:55.852Z,9.47
2023-04-07T18:19:25.466Z,9.36
2023-04-07T18:21:53.452Z,9.29
2023-04-07T18:24:20.917Z,9.24
2023-04-07T18:26:47.818Z,9.16
2023-04-07T18:29:14.924Z,9.07
2023-04-07T18:31:42.344Z,9.00
2023-04-07T18:34:10.299Z,8.92
2023-04-07T18:36:37.538Z,8.87
2023-04-07T18:39:04.876Z,8.83
2023-04-07T18:41:34.293Z,8.76
2023-04-07T18:44:01.266Z,8.70
2023-04-07T18:46:27.865Z,8.64
2023-04-07T18:48:54.502Z,8.64
2023-04-07T18:51:21.292Z,8.57
2023-04-07T18:53:48.045Z,8.50
2023-04-07T18:56:14.826Z,8.41
2023-04-07T18:58:44.915Z,8.39
2023-04-07T19:01:13.276Z,8.33
2023-04-07T19:03:40.781Z,8.28
2023-04-07T19:06:07.801Z,8.26
2023-04-07T19:08:36.147Z,8.16
2023-04-07T19:11:02.806Z,8.06
2023-04-07T19:13:29.326Z,7.98
2023-04-07T19:15:55.969Z,7.87
2023-04-07T19:18:22.756Z,7.78
2023-04-07T19:20:49.302Z,7.69
2023-04-07T19:23:15.855Z,7.64
2023-04-07T19:25:45.047Z,7.56
2023-04-07T19:28:12.299Z,7.55
2023-04-07T19:30:38.770Z,7.54
2023-04-07T19:33:05.616Z,7.54
2023-04-07T19:35:32.963Z,7.56
2023-04-07T19:37:59.637Z,7.56
2023-04-07T19:40:26.280Z,7.60
2023-04-07T19:42:54.719Z,7.62
2023-04-07T19:45:21.524Z,7.61
2023-04-07T19:47:48.393Z,7.54
2023-04-07T19:50:15.023Z,7.48
2023-04-07T19:52:43.580Z,7.42
2023-04-07T19:55:10.903Z,7.39
2023-04-07T19:57:38.393Z,7.28
2023-04-07T20:00:05.401Z,7.21
2023-04-07T20:02:32.213Z,7.15
2023-04-07T20:04:58.804Z,7.05
2023-04-07T20:07:25.376Z,6.98
2023-04-07T20:09:53.940Z,6.90
2023-04-07T20:12:20.906Z,6.84
2023-04-07T20:14:47.427Z,6.76
2023-04-07T20:17:13.947Z,6.66
2023-04-07T20:19:41.516Z,6.61
2023-04-07T20:22:08.830Z,6.54
2023-04-07T20:24:36.000Z,6.49
2023-04-07T20:27:02.761Z,6.49
2023-04-07T20:29:29.326Z,6.43
2023-04-07T20:31:55.941Z,6.38
2023-04-07T20:34:22.555Z,6.35
2023-04-07T20:36:49.276Z,6.36
2023-04-07T20:39:16.569Z,6.36
2023-04-07T20:41:45.051Z,6.35
2023-04-07T20:44:12.208Z,6.35
2023-04-07T20:46:38.898Z,6.39
2023-04-07T20:49:07.771Z,6.40
2023-04-07T20:51:37.289Z,6.34
2023-04-07T20:54:04.703Z,6.28
2023-04-07T20:56:31.933Z,6.22
2023-04-07T20:58:58.620Z,6.14
2023-04-07T21:01:25.467Z,6.10
2023-04-07T21:03:52.863Z,6.01
2023-04-07T21:06:19.470Z,5.94
2023-04-07T21:08:46.172Z,5.90
2023-04-07T21:11:12.779Z,5.82
2023-04-07T21:13:39.344Z,5.78
2023-04-07T21:16:06.155Z,5.74
2023-04-07T21:18:33.425Z,5.70
2023-04-07T21:21:02.096Z,5.69
2023-04-07T21:23:31.204Z,5.66
2023-04-07T21:26:02.261Z,5.64
2023-04-07T21:28:29.065Z,5.64
2023-04-07T21:30:56.677Z,5.65
2023-04-07T21:33:23.294Z,5.66
2023-04-07T21:35:51.211Z,5.64
2023-04-07T21:38:18.017Z,5.65
2023-04-07T21:40:45.030Z,5.65
2023-04-07T21:43:12.252Z,5.58
2023-04-07T21:45:39.138Z,5.53
2023-04-07T21:48:06.550Z,5.48
2023-04-07T21:50:33.356Z,5.39
2023-04-07T21:52:59.946Z,5.31
2023-04-07T21:55:27.259Z,5.25
2023-04-07T21:57:54.335Z,5.15
2023-04-07T22:00:21.784Z,5.07
2023-04-07T22:02:48.705Z,5.00
2023-04-07T22:05:16.109Z,4.88
2023-04-07T22:07:42.800Z,4.81
2023-04-07T22:10:09.746Z,4.78
2023-04-07T22:12:36.542Z,4.77
2023-04-07T22:15:03.321Z,4.74
2023-04-07T22:17:30.574Z,4.70
2023-04-07T22:19:57.188Z,4.64
2023-04-07T22:22:23.698Z,4.60
2023-04-07T22:24:50.321Z,4.55
2023-04-07T22:27:16.861Z,4.48
2023-04-07T22:29:43.418Z,4.42
2023-04-07T22:32:09.963Z,4.38
2023-04-07T22:34:36.543Z,4.33
2023-04-07T22:37:03.097Z,4.28
2023-04-07T22:39:29.686Z,4.23
2023-04-07T22:41:56.268Z,4.20
2023-04-07T22:44:22.776Z,4.16
2023-04-07T22:46:49.347Z,4.12
2023-04-07T22:49:16.170Z,4.09
2023-04-07T22:51:48.219Z,4.08
2023-04-07T22:54:15.884Z,4.06
2023-04-07T22:56:42.759Z,4.02
2023-04-07T22:59:09.225Z,3.96
2023-04-07T23:01:35.880Z,3.93
2023-04-07T23:04:02.420Z,3.86
2023-04-07T23:06:29.133Z,3.78
2023-04-07T23:08:56.471Z,3.75
2023-04-07T23:11:23.110Z,3.73
2023-04-07T23:13:49.929Z,3.73
2023-04-07T23:16:16.599Z,3.69
2023-04-07T23:18:45.815Z,3.66
2023-04-07T23:21:13.165Z,3.66
2023-04-07T23:23:39.670Z,3.65
2023-04-07T23:26:08.998Z,3.67
2023-04-07T23:28:35.845Z,3.69
2023-04-07T23:31:02.711Z,3.71
2023-04-07T23:33:31.649Z,3.69
2023-04-07T23:35:58.781Z,3.64
2023-04-07T23:38:25.943Z,3.62
2023-04-07T23:40:53.087Z,3.60
2023-04-07T23:43:19.654Z,3.55
2023-04-07T23:45:46.171Z,3.53
2023-04-07T23:48:12.657Z,3.50
2023-04-07T23:50:39.466Z,3.48
2023-04-07T23:53:06.288Z,3.45
2023-04-07T23:55:33.093Z,3.43
2023-04-07T23:57:59.663Z,3.45
